Anaktuvuk, Alaska
Current Conditions -  °F | °C
As of 2:53 AM on Monday 22 Dec 2014 (Local Time) from PABT Reporting Station
Overcast Overcast  
Wind Chill:   Ceiling: 4200
Heat Index:   Visibility: 10mi
Dew Point:   Wind: 0mph
Humidity: 80%   Direction: NA
Pressure: 29.66"   Gusts: NA
Location:  68.565°N, 152.085°W
Report Text: PABT 221153Z 00000KT 10SM OVC042 M14/M17 A2966 RMK AO2 SLP065 4/011 T11391167 11139 21161 51022
Loading
Personal Weather Stations






























Interactive Weather Map New forecast layout! Learn more

10-Day Weather Forecast

Advertisements
Track Severe Weather on mobile